sensor_id;sensor_type;location;lat;lon;timestamp;pressure;altitude;pressure_sealevel;temperature;humidity
72921;BME280;61064;51.654;5.476;2023-04-04T00:02:14;103012.19;;;2.37;63.59
72921;BME280;61064;51.654;5.476;2023-04-04T00:04:42;103010.81;;;2.30;63.64
72921;BME280;61064;51.654;5.476;2023-04-04T00:07:08;102996.75;;;2.18;63.72
72921;BME280;61064;51.654;5.476;2023-04-04T00:09:33;102903.28;;;1.62;63.48
72921;BME280;61064;51.654;5.476;2023-04-04T00:11:59;103007.97;;;2.16;63.96
72921;BME280;61064;51.654;5.476;2023-04-04T00:14:24;103067.81;;;2.43;63.62
72921;BME280;61064;51.654;5.476;2023-04-04T00:16:50;103060.59;;;2.40;63.83
72921;BME280;61064;51.654;5.476;2023-04-04T00:19:15;103028.53;;;2.21;63.95
72921;BME280;61064;51.654;5.476;2023-04-04T00:21:43;103034.56;;;2.20;64.07
72921;BME280;61064;51.654;5.476;2023-04-04T00:24:10;103059.34;;;2.35;64.01
72921;BME280;61064;51.654;5.476;2023-04-04T00:26:35;103060.13;;;2.34;63.93
72921;BME280;61064;51.654;5.476;2023-04-04T00:29:00;103019.28;;;2.15;63.99
72921;BME280;61064;51.654;5.476;2023-04-04T00:31:26;103058.22;;;2.32;64.10
72921;BME280;61064;51.654;5.476;2023-04-04T00:33:51;103009.66;;;2.03;64.14
72921;BME280;61064;51.654;5.476;2023-04-04T00:36:17;103048.50;;;2.19;64.12
72921;BME280;61064;51.654;5.476;2023-04-04T00:38:42;103031.13;;;2.09;64.49
72921;BME280;61064;51.654;5.476;2023-04-04T00:41:10;103057.88;;;2.27;64.19
72921;BME280;61064;51.654;5.476;2023-04-04T00:43:36;102986.28;;;1.83;64.30
72921;BME280;61064;51.654;5.476;2023-04-04T00:46:02;103001.47;;;1.99;64.48
72921;BME280;61064;51.654;5.476;2023-04-04T00:48:28;103016.75;;;2.04;64.62
72921;BME280;61064;51.654;5.476;2023-04-04T00:50:53;103005.91;;;1.88;64.31
72921;BME280;61064;51.654;5.476;2023-04-04T00:53:19;103014.72;;;2.00;64.48
72921;BME280;61064;51.654;5.476;2023-04-04T00:55:44;103056.38;;;2.19;64.38
72921;BME280;61064;51.654;5.476;2023-04-04T00:58:11;103011.25;;;2.01;64.32
72921;BME280;61064;51.654;5.476;2023-04-04T01:00:37;102973.59;;;1.78;64.36
72921;BME280;61064;51.654;5.476;2023-04-04T01:03:03;102997.31;;;1.91;64.78
72921;BME280;61064;51.654;5.476;2023-04-04T01:05:31;102984.09;;;1.89;64.29
72921;BME280;61064;51.654;5.476;2023-04-04T01:07:57;103040.94;;;2.24;64.63
72921;BME280;61064;51.654;5.476;2023-04-04T01:10:22;103007.97;;;2.04;64.53
72921;BME280;61064;51.654;5.476;2023-04-04T01:12:48;103007.16;;;2.05;64.63
72921;BME280;61064;51.654;5.476;2023-04-04T01:15:14;103006.47;;;2.07;64.70
72921;BME280;61064;51.654;5.476;2023-04-04T01:17:40;102986.38;;;1.96;64.57
72921;BME280;61064;51.654;5.476;2023-04-04T01:20:14;103014.69;;;2.12;64.71
72921;BME280;61064;51.654;5.476;2023-04-04T01:22:42;103024.97;;;2.21;64.52
72921;BME280;61064;51.654;5.476;2023-04-04T01:25:08;102984.19;;;1.91;64.59
72921;BME280;61064;51.654;5.476;2023-04-04T01:27:35;102957.38;;;1.72;64.75
72921;BME280;61064;51.654;5.476;2023-04-04T01:30:01;103038.69;;;2.17;64.72
72921;BME280;61064;51.654;5.476;2023-04-04T01:32:43;102990.38;;;1.91;64.93
72921;BME280;61064;51.654;5.476;2023-04-04T01:35:34;103026.94;;;2.12;64.65
72921;BME280;61064;51.654;5.476;2023-04-04T01:41:12;103030.09;;;2.07;64.93
72921;BME280;61064;51.654;5.476;2023-04-04T01:43:38;103023.84;;;2.05;64.82
72921;BME280;61064;51.654;5.476;2023-04-04T01:46:04;102977.59;;;1.73;65.01
72921;BME280;61064;51.654;5.476;2023-04-04T01:48:30;102995.59;;;1.80;65.23
72921;BME280;61064;51.654;5.476;2023-04-04T01:50:55;103017.31;;;1.89;64.98
72921;BME280;61064;51.654;5.476;2023-04-04T01:53:21;103023.13;;;1.96;65.14
72921;BME280;61064;51.654;5.476;2023-04-04T01:55:46;103021.06;;;1.92;65.44
72921;BME280;61064;51.654;5.476;2023-04-04T01:58:12;102962.81;;;1.51;65.44
72921;BME280;61064;51.654;5.476;2023-04-04T02:00:38;102955.50;;;1.47;65.40
72921;BME280;61064;51.654;5.476;2023-04-04T02:03:03;102985.88;;;1.55;65.64
72921;BME280;61064;51.654;5.476;2023-04-04T02:05:28;102966.56;;;1.43;65.43
72921;BME280;61064;51.654;5.476;2023-04-04T02:07:54;103022.28;;;1.74;65.85
72921;BME280;61064;51.654;5.476;2023-04-04T02:10:20;102963.78;;;1.30;65.96
72921;BME280;61064;51.654;5.476;2023-04-04T02:12:45;103036.41;;;1.64;66.06
72921;BME280;61064;51.654;5.476;2023-04-04T02:15:12;102917.22;;;1.04;66.03
72921;BME280;61064;51.654;5.476;2023-04-04T02:17:38;103008.66;;;1.45;66.06
72921;BME280;61064;51.654;5.476;2023-04-04T02:20:05;102958.41;;;1.17;66.20
72921;BME280;61064;51.654;5.476;2023-04-04T02:22:30;102986.25;;;1.27;66.08
72921;BME280;61064;51.654;5.476;2023-04-04T02:24:56;103047.00;;;1.54;66.40
72921;BME280;61064;51.654;5.476;2023-04-04T02:27:26;103063.41;;;1.52;66.54
72921;BME280;61064;51.654;5.476;2023-04-04T02:29:52;103064.09;;;1.49;66.33
72921;BME280;61064;51.654;5.476;2023-04-04T02:32:21;102992.88;;;1.00;66.36
72921;BME280;61064;51.654;5.476;2023-04-04T02:34:47;102971.63;;;0.97;66.31
72921;BME280;61064;51.654;5.476;2023-04-04T02:37:12;103010.28;;;1.21;66.52
72921;BME280;61064;51.654;5.476;2023-04-04T02:39:37;103031.19;;;1.31;66.31
72921;BME280;61064;51.654;5.476;2023-04-04T02:42:03;103046.97;;;1.43;66.59
72921;BME280;61064;51.654;5.476;2023-04-04T02:44:29;103043.19;;;1.39;66.47
72921;BME280;61064;51.654;5.476;2023-04-04T02:46:54;102986.63;;;1.09;66.45
72921;BME280;61064;51.654;5.476;2023-04-04T02:49:19;102978.94;;;1.01;66.64
72921;BME280;61064;51.654;5.476;2023-04-04T02:51:45;102984.31;;;1.02;66.59
72921;BME280;61064;51.654;5.476;2023-04-04T02:54:10;103033.31;;;1.25;66.80
72921;BME280;61064;51.654;5.476;2023-04-04T02:56:36;103038.25;;;1.32;66.92
72921;BME280;61064;51.654;5.476;2023-04-04T02:59:02;102987.06;;;1.04;66.87
72921;BME280;61064;51.654;5.476;2023-04-04T03:01:28;103011.50;;;1.14;66.80
72921;BME280;61064;51.654;5.476;2023-04-04T03:03:54;102997.41;;;1.02;66.87
72921;BME280;61064;51.654;5.476;2023-04-04T03:06:20;103013.41;;;1.05;66.90
72921;BME280;61064;51.654;5.476;2023-04-04T03:08:45;103011.00;;;1.08;66.92
72921;BME280;61064;51.654;5.476;2023-04-04T03:11:11;103013.75;;;1.10;66.88
72921;BME280;61064;51.654;5.476;2023-04-04T03:13:36;102971.72;;;0.87;66.70
72921;BME280;61064;51.654;5.476;2023-04-04T03:16:03;103009.09;;;1.06;66.67
72921;BME280;61064;51.654;5.476;2023-04-04T03:18:31;103023.56;;;1.12;67.19
72921;BME280;61064;51.654;5.476;2023-04-04T03:20:57;102966.91;;;0.81;67.11
72921;BME280;61064;51.654;5.476;2023-04-04T03:23:22;103001.03;;;0.93;67.04
72921;BME280;61064;51.654;5.476;2023-04-04T03:25:49;102988.56;;;0.90;67.15
72921;BME280;61064;51.654;5.476;2023-04-04T03:28:14;102987.13;;;0.94;67.08
72921;BME280;61064;51.654;5.476;2023-04-04T03:30:40;103025.25;;;1.12;67.14
72921;BME280;61064;51.654;5.476;2023-04-04T03:33:06;103019.91;;;1.10;67.22
72921;BME280;61064;51.654;5.476;2023-04-04T03:35:41;103030.28;;;1.09;67.23
72921;BME280;61064;51.654;5.476;2023-04-04T03:38:07;102990.84;;;0.86;67.31
72921;BME280;61064;51.654;5.476;2023-04-04T03:40:33;102923.44;;;0.51;67.26
72921;BME280;61064;51.654;5.476;2023-04-04T03:42:59;103024.69;;;1.04;67.42
72921;BME280;61064;51.654;5.476;2023-04-04T03:45:26;102993.47;;;0.86;67.24
72921;BME280;61064;51.654;5.476;2023-04-04T03:47:52;102962.09;;;0.75;67.59
72921;BME280;61064;51.654;5.476;2023-04-04T03:50:18;103002.31;;;0.98;67.57
72921;BME280;61064;51.654;5.476;2023-04-04T03:52:43;102980.22;;;0.84;67.37
72921;BME280;61064;51.654;5.476;2023-04-04T03:55:09;103008.09;;;0.94;67.32
72921;BME280;61064;51.654;5.476;2023-04-04T03:57:34;102984.09;;;0.77;67.44
72921;BME280;61064;51.654;5.476;2023-04-04T04:00:01;102944.59;;;0.43;67.77
72921;BME280;61064;51.654;5.476;2023-04-04T04:02:27;103022.56;;;0.89;67.84
72921;BME280;61064;51.654;5.476;2023-04-04T04:04:52;102959.16;;;0.61;67.90
72921;BME280;61064;51.654;5.476;2023-04-04T04:07:18;102980.19;;;0.72;67.59
72921;BME280;61064;51.654;5.476;2023-04-04T04:09:43;103013.63;;;0.87;67.82
72921;BME280;61064;51.654;5.476;2023-04-04T04:12:09;102959.59;;;0.55;67.57
72921;BME280;61064;51.654;5.476;2023-04-04T04:14:35;102959.03;;;0.59;68.03
72921;BME280;61064;51.654;5.476;2023-04-04T04:17:01;102973.59;;;0.56;67.64
72921;BME280;61064;51.654;5.476;2023-04-04T04:19:26;102977.50;;;0.61;67.87
72921;BME280;61064;51.654;5.476;2023-04-04T04:21:52;102972.56;;;0.54;67.97
72921;BME280;61064;51.654;5.476;2023-04-04T04:24:17;102994.38;;;0.64;67.87
72921;BME280;61064;51.654;5.476;2023-04-04T04:26:42;103009.91;;;0.73;67.76
72921;BME280;61064;51.654;5.476;2023-04-04T04:29:08;102999.91;;;0.57;67.80
72921;BME280;61064;51.654;5.476;2023-04-04T04:31:33;103014.13;;;0.71;68.20
72921;BME280;61064;51.654;5.476;2023-04-04T04:33:59;103019.00;;;0.66;67.97
72921;BME280;61064;51.654;5.476;2023-04-04T04:36:24;102955.75;;;0.30;68.29
72921;BME280;61064;51.654;5.476;2023-04-04T04:38:50;102931.09;;;0.16;68.31
72921;BME280;61064;51.654;5.476;2023-04-04T04:41:16;103011.56;;;0.61;68.44
72921;BME280;61064;51.654;5.476;2023-04-04T04:43:42;103001.22;;;0.52;68.44
72921;BME280;61064;51.654;5.476;2023-04-04T04:46:08;102966.38;;;0.31;68.38
72921;BME280;61064;51.654;5.476;2023-04-04T04:48:33;103015.38;;;0.54;68.26
72921;BME280;61064;51.654;5.476;2023-04-04T04:50:59;103016.94;;;0.52;68.74
72921;BME280;61064;51.654;5.476;2023-04-04T04:53:24;103008.09;;;0.40;68.39
72921;BME280;61064;51.654;5.476;2023-04-04T04:55:50;103028.09;;;0.50;68.54
72921;BME280;61064;51.654;5.476;2023-04-04T04:58:19;102935.47;;;-0.05;68.65
72921;BME280;61064;51.654;5.476;2023-04-04T05:00:48;102894.25;;;-0.39;68.57
72921;BME280;61064;51.654;5.476;2023-04-04T05:03:13;102986.31;;;0.19;68.87
72921;BME280;61064;51.654;5.476;2023-04-04T05:05:39;103010.50;;;0.27;68.70
72921;BME280;61064;51.654;5.476;2023-04-04T05:08:06;102989.97;;;0.21;68.78
72921;BME280;61064;51.654;5.476;2023-04-04T05:10:31;103008.66;;;0.26;68.74
72921;BME280;61064;51.654;5.476;2023-04-04T05:12:57;103039.50;;;0.40;69.08
72921;BME280;61064;51.654;5.476;2023-04-04T05:15:22;103035.88;;;0.38;68.98
72921;BME280;61064;51.654;5.476;2023-04-04T05:17:50;103036.66;;;0.37;68.92
72921;BME280;61064;51.654;5.476;2023-04-04T05:20:15;103019.28;;;0.27;68.92
72921;BME280;61064;51.654;5.476;2023-04-04T05:22:44;103033.66;;;0.32;69.16
72921;BME280;61064;51.654;5.476;2023-04-04T05:25:12;103034.44;;;0.31;69.19
72921;BME280;61064;51.654;5.476;2023-04-04T05:27:40;103031.69;;;0.30;69.28
72921;BME280;61064;51.654;5.476;2023-04-04T05:30:07;103027.78;;;0.25;69.40
72921;BME280;61064;51.654;5.476;2023-04-04T05:32:33;103006.38;;;0.09;69.47
72921;BME280;61064;51.654;5.476;2023-04-04T05:34:59;103012.25;;;0.16;69.25
72921;BME280;61064;51.654;5.476;2023-04-04T05:37:27;102980.38;;;0.00;69.31
72921;BME280;61064;51.654;5.476;2023-04-04T05:39:53;102971.34;;;-0.14;69.56
72921;BME280;61064;51.654;5.476;2023-04-04T05:42:19;103042.28;;;0.31;69.53
72921;BME280;61064;51.654;5.476;2023-04-04T05:44:44;103045.47;;;0.27;69.38
72921;BME280;61064;51.654;5.476;2023-04-04T05:47:10;103002.69;;;0.07;69.39
72921;BME280;61064;51.654;5.476;2023-04-04T05:49:35;102974.47;;;-0.08;69.50
72921;BME280;61064;51.654;5.476;2023-04-04T05:52:01;103053.16;;;0.36;69.44
72921;BME280;61064;51.654;5.476;2023-04-04T05:54:29;103045.28;;;0.36;69.72
72921;BME280;61064;51.654;5.476;2023-04-04T05:56:55;103002.41;;;0.14;69.60
72921;BME280;61064;51.654;5.476;2023-04-04T05:59:21;102938.00;;;-0.16;69.92
72921;BME280;61064;51.654;5.476;2023-04-04T06:01:46;103006.88;;;0.15;69.69
72921;BME280;61064;51.654;5.476;2023-04-04T06:04:11;103045.25;;;0.46;69.70
72921;BME280;61064;51.654;5.476;2023-04-04T06:06:37;102989.59;;;0.17;69.78
72921;BME280;61064;51.654;5.476;2023-04-04T06:09:03;103045.19;;;0.56;70.08
72921;BME280;61064;51.654;5.476;2023-04-04T06:11:28;103040.09;;;0.58;70.14
72921;BME280;61064;51.654;5.476;2023-04-04T06:13:54;102982.09;;;0.31;69.83
72921;BME280;61064;51.654;5.476;2023-04-04T06:16:20;103051.41;;;0.78;69.91
72921;BME280;61064;51.654;5.476;2023-04-04T06:18:46;103019.50;;;0.62;70.04
72921;BME280;61064;51.654;5.476;2023-04-04T06:21:11;103055.28;;;0.94;69.88
72921;BME280;61064;51.654;5.476;2023-04-04T06:23:37;103025.03;;;0.87;69.98
72921;BME280;61064;51.654;5.476;2023-04-04T06:26:03;102968.91;;;0.73;69.70
72921;BME280;61064;51.654;5.476;2023-04-04T06:28:29;103055.91;;;1.35;69.84
72921;BME280;61064;51.654;5.476;2023-04-04T06:30:54;103050.63;;;1.45;69.67
72921;BME280;61064;51.654;5.476;2023-04-04T06:33:19;103007.22;;;1.27;69.67
72921;BME280;61064;51.654;5.476;2023-04-04T06:35:45;102988.44;;;1.32;69.33
72921;BME280;61064;51.654;5.476;2023-04-04T06:38:10;103010.28;;;1.54;69.37
72921;BME280;61064;51.654;5.476;2023-04-04T06:40:35;102995.44;;;1.55;69.67
72921;BME280;61064;51.654;5.476;2023-04-04T06:43:01;103062.97;;;2.02;69.49
72921;BME280;61064;51.654;5.476;2023-04-04T06:45:27;103023.81;;;1.94;69.47
72921;BME280;61064;51.654;5.476;2023-04-04T06:47:53;103062.34;;;2.28;69.78
72921;BME280;61064;51.654;5.476;2023-04-04T06:50:20;103073.97;;;2.43;69.54
72921;BME280;61064;51.654;5.476;2023-04-04T06:52:46;103062.69;;;2.56;69.30
72921;BME280;61064;51.654;5.476;2023-04-04T06:55:12;103030.91;;;2.53;69.08
72921;BME280;61064;51.654;5.476;2023-04-04T06:57:38;102992.88;;;2.48;69.73
72921;BME280;61064;51.654;5.476;2023-04-04T07:00:04;103058.94;;;3.01;69.18
72921;BME280;61064;51.654;5.476;2023-04-04T07:02:30;103055.47;;;3.13;69.32
72921;BME280;61064;51.654;5.476;2023-04-04T07:04:55;103005.09;;;2.96;69.05
72921;BME280;61064;51.654;5.476;2023-04-04T07:07:20;102984.41;;;3.00;68.66
72921;BME280;61064;51.654;5.476;2023-04-04T07:09:46;103071.28;;;3.63;69.06
72921;BME280;61064;51.654;5.476;2023-04-04T07:12:11;103068.09;;;3.80;68.94
72921;BME280;61064;51.654;5.476;2023-04-04T07:14:36;103069.25;;;3.97;68.24
72921;BME280;61064;51.654;5.476;2023-04-04T07:17:02;103018.50;;;3.86;68.58
72921;BME280;61064;51.654;5.476;2023-04-04T07:19:27;102982.84;;;3.78;68.29
72921;BME280;61064;51.654;5.476;2023-04-04T07:21:56;103016.50;;;4.08;68.08
72921;BME280;61064;51.654;5.476;2023-04-04T07:24:21;103039.00;;;4.30;68.08
72921;BME280;61064;51.654;5.476;2023-04-04T07:26:47;103024.13;;;4.30;67.72
72921;BME280;61064;51.654;5.476;2023-04-04T07:29:12;102982.47;;;4.25;67.86
72921;BME280;61064;51.654;5.476;2023-04-04T07:31:38;103007.59;;;4.59;67.57
72921;BME280;61064;51.654;5.476;2023-04-04T07:34:03;102972.91;;;4.53;67.23
72921;BME280;61064;51.654;5.476;2023-04-04T07:36:29;103023.34;;;4.98;66.94
72921;BME280;61064;51.654;5.476;2023-04-04T07:38:55;103024.63;;;5.18;66.91
72921;BME280;61064;51.654;5.476;2023-04-04T07:41:20;103008.25;;;5.24;66.42
72921;BME280;61064;51.654;5.476;2023-04-04T07:43:47;103045.75;;;5.61;66.41
72921;BME280;61064;51.654;5.476;2023-04-04T07:46:12;103006.94;;;5.45;65.76
72921;BME280;61064;51.654;5.476;2023-04-04T07:48:38;103041.66;;;5.80;65.55
72921;BME280;61064;51.654;5.476;2023-04-04T07:51:04;102979.72;;;5.61;65.94
72921;BME280;61064;51.654;5.476;2023-04-04T07:53:29;103004.09;;;5.84;65.48
72921;BME280;61064;51.654;5.476;2023-04-04T07:55:55;102992.47;;;5.96;65.30
72921;BME280;61064;51.654;5.476;2023-04-04T07:58:20;103044.72;;;6.45;64.95
72921;BME280;61064;51.654;5.476;2023-04-04T08:00:46;103009.59;;;6.48;64.58
72921;BME280;61064;51.654;5.476;2023-04-04T08:03:12;103040.22;;;6.74;64.05
72921;BME280;61064;51.654;5.476;2023-04-04T08:05:38;102979.59;;;6.47;64.15
72921;BME280;61064;51.654;5.476;2023-04-04T08:08:03;103043.97;;;6.93;63.50
72921;BME280;61064;51.654;5.476;2023-04-04T08:10:28;103022.34;;;6.86;63.63
72921;BME280;61064;51.654;5.476;2023-04-04T08:12:54;102998.72;;;6.89;63.21
72921;BME280;61064;51.654;5.476;2023-04-04T08:15:19;103057.91;;;7.22;62.56
72921;BME280;61064;51.654;5.476;2023-04-04T08:17:45;102976.16;;;6.95;62.48
72921;BME280;61064;51.654;5.476;2023-04-04T08:20:11;103046.66;;;7.42;62.04
72921;BME280;61064;51.654;5.476;2023-04-04T08:22:38;103047.53;;;7.57;61.61
72921;BME280;61064;51.654;5.476;2023-04-04T08:25:04;103041.19;;;7.71;61.33
72921;BME280;61064;51.654;5.476;2023-04-04T08:27:30;103008.16;;;7.65;60.98
72921;BME280;61064;51.654;5.476;2023-04-04T08:29:55;103004.88;;;7.69;60.56
72921;BME280;61064;51.654;5.476;2023-04-04T08:32:21;103035.53;;;7.98;60.12
72921;BME280;61064;51.654;5.476;2023-04-04T08:34:47;103043.97;;;8.07;59.87
72921;BME280;61064;51.654;5.476;2023-04-04T08:37:12;102963.03;;;7.79;59.50
72921;BME280;61064;51.654;5.476;2023-04-04T08:39:38;102899.19;;;7.57;58.98
72921;BME280;61064;51.654;5.476;2023-04-04T08:42:06;102997.94;;;8.22;58.79
72921;BME280;61064;51.654;5.476;2023-04-04T08:44:33;103021.91;;;8.42;58.42
72921;BME280;61064;51.654;5.476;2023-04-04T08:47:02;103022.81;;;8.60;57.85
72921;BME280;61064;51.654;5.476;2023-04-04T08:49:31;102910.19;;;8.00;57.38
72921;BME280;61064;51.654;5.476;2023-04-04T08:51:58;103007.69;;;8.57;57.03
72921;BME280;61064;51.654;5.476;2023-04-04T08:54:25;102998.19;;;8.62;56.98
72921;BME280;61064;51.654;5.476;2023-04-04T08:56:51;102914.50;;;8.16;56.19
72921;BME280;61064;51.654;5.476;2023-04-04T08:59:16;102983.50;;;8.51;56.10
72921;BME280;61064;51.654;5.476;2023-04-04T09:01:43;103022.06;;;8.80;55.89
72921;BME280;61064;51.654;5.476;2023-04-04T09:04:09;102934.72;;;8.30;55.13
72921;BME280;61064;51.654;5.476;2023-04-04T09:06:35;102979.09;;;8.52;55.31
72921;BME280;61064;51.654;5.476;2023-04-04T09:09:01;103009.75;;;8.82;55.01
72921;BME280;61064;51.654;5.476;2023-04-04T09:11:30;102965.53;;;8.63;54.67
72921;BME280;61064;51.654;5.476;2023-04-04T09:13:56;102997.06;;;8.94;54.75
72921;BME280;61064;51.654;5.476;2023-04-04T09:16:22;103020.94;;;9.12;54.31
72921;BME280;61064;51.654;5.476;2023-04-04T09:18:48;103003.09;;;9.09;54.04
72921;BME280;61064;51.654;5.476;2023-04-04T09:21:13;103013.31;;;9.19;53.93
72921;BME280;61064;51.654;5.476;2023-04-04T09:23:38;103020.53;;;9.22;53.66
72921;BME280;61064;51.654;5.476;2023-04-04T09:26:05;103018.22;;;9.30;53.74
72921;BME280;61064;51.654;5.476;2023-04-04T09:28:32;103013.31;;;9.39;53.38
72921;BME280;61064;51.654;5.476;2023-04-04T09:31:00;103016.47;;;9.49;53.08
72921;BME280;61064;51.654;5.476;2023-04-04T09:33:26;102987.59;;;9.57;52.94
72921;BME280;61064;51.654;5.476;2023-04-04T09:36:02;103002.19;;;9.86;53.00
72921;BME280;61064;51.654;5.476;2023-04-04T09:38:28;103008.41;;;10.07;52.88
72921;BME280;61064;51.654;5.476;2023-04-04T09:40:54;103014.41;;;10.22;52.31
72921;BME280;61064;51.654;5.476;2023-04-04T09:43:22;102937.00;;;9.95;52.02
72921;BME280;61064;51.654;5.476;2023-04-04T09:45:48;102969.13;;;10.21;51.79
72921;BME280;61064;51.654;5.476;2023-04-04T09:48:24;102966.88;;;10.30;51.04
72921;BME280;61064;51.654;5.476;2023-04-04T09:50:50;102968.81;;;10.34;51.35
72921;BME280;61064;51.654;5.476;2023-04-04T09:53:16;102972.56;;;10.39;51.05
72921;BME280;61064;51.654;5.476;2023-04-04T09:55:55;102996.44;;;10.58;49.88
72921;BME280;61064;51.654;5.476;2023-04-04T09:58:28;102994.06;;;10.66;50.42
72921;BME280;61064;51.654;5.476;2023-04-04T10:00:55;102945.59;;;10.52;50.42
72921;BME280;61064;51.654;5.476;2023-04-04T10:03:22;102979.66;;;10.61;49.98
72921;BME280;61064;51.654;5.476;2023-04-04T10:06:01;102992.38;;;10.68;49.72
72921;BME280;61064;51.654;5.476;2023-04-04T10:08:28;102990.72;;;10.71;50.28
72921;BME280;61064;51.654;5.476;2023-04-04T10:11:01;102984.06;;;10.82;50.04
72921;BME280;61064;51.654;5.476;2023-04-04T10:13:29;102965.44;;;10.82;49.92
72921;BME280;61064;51.654;5.476;2023-04-04T10:15:59;102991.28;;;11.07;49.41
72921;BME280;61064;51.654;5.476;2023-04-04T10:18:29;102982.81;;;10.95;48.43
72921;BME280;61064;51.654;5.476;2023-04-04T10:20:56;102878.34;;;10.34;48.97
72921;BME280;61064;51.654;5.476;2023-04-04T10:23:23;102954.19;;;10.90;49.18
72921;BME280;61064;51.654;5.476;2023-04-04T10:25:54;102980.56;;;11.06;49.05
72921;BME280;61064;51.654;5.476;2023-04-04T10:28:20;102987.13;;;11.15;49.00
72921;BME280;61064;51.654;5.476;2023-04-04T10:31:08;102973.38;;;11.27;47.40
72921;BME280;61064;51.654;5.476;2023-04-04T10:37:23;102937.78;;;11.01;48.56
72921;BME280;61064;51.654;5.476;2023-04-04T10:40:09;102964.97;;;11.16;48.33
72921;BME280;61064;51.654;5.476;2023-04-04T10:42:40;102940.84;;;11.12;48.14
72921;BME280;61064;51.654;5.476;2023-04-04T10:45:08;102874.97;;;10.84;48.09
72921;BME280;61064;51.654;5.476;2023-04-04T10:47:35;102924.00;;;11.13;47.49
72921;BME280;61064;51.654;5.476;2023-04-04T10:50:03;102969.19;;;11.34;47.65
72921;BME280;61064;51.654;5.476;2023-04-04T10:52:37;102932.84;;;11.36;47.68
72921;BME280;61064;51.654;5.476;2023-04-04T10:55:13;102888.63;;;11.17;47.68
72921;BME280;61064;51.654;5.476;2023-04-04T10:57:46;102957.44;;;11.76;47.08
72921;BME280;61064;51.654;5.476;2023-04-04T11:00:18;102916.56;;;11.76;46.98
72921;BME280;61064;51.654;5.476;2023-04-04T11:03:00;102939.53;;;11.97;46.61
72921;BME280;61064;51.654;5.476;2023-04-04T11:05:38;102943.34;;;12.05;46.03
72921;BME280;61064;51.654;5.476;2023-04-04T11:08:17;102944.47;;;12.12;46.63
72921;BME280;61064;51.654;5.476;2023-04-04T11:10:49;102907.75;;;12.05;46.27
72921;BME280;61064;51.654;5.476;2023-04-04T11:13:18;102925.56;;;12.33;46.78
72921;BME280;61064;51.654;5.476;2023-04-04T11:15:55;102898.59;;;12.24;46.10
72921;BME280;61064;51.654;5.476;2023-04-04T11:20:56;102885.97;;;12.18;45.86
72921;BME280;61064;51.654;5.476;2023-04-04T11:23:23;102869.91;;;12.17;45.95
72921;BME280;61064;51.654;5.476;2023-04-04T11:25:53;102878.50;;;12.35;45.64
72921;BME280;61064;51.654;5.476;2023-04-04T11:41:55;102894.19;;;12.53;45.57
72921;BME280;61064;51.654;5.476;2023-04-04T11:44:26;102897.84;;;12.84;45.42
72921;BME280;61064;51.654;5.476;2023-04-04T11:47:11;102898.94;;;12.91;45.31
72921;BME280;61064;51.654;5.476;2023-04-04T11:49:40;102886.25;;;12.84;44.94
72921;BME280;61064;51.654;5.476;2023-04-04T11:52:11;102888.50;;;13.00;44.33
72921;BME280;61064;51.654;5.476;2023-04-04T11:54:39;102898.19;;;12.97;44.59
72921;BME280;61064;51.654;5.476;2023-04-04T11:57:05;102854.97;;;12.80;44.59
72921;BME280;61064;51.654;5.476;2023-04-04T11:59:31;102899.28;;;13.03;44.18
72921;BME280;61064;51.654;5.476;2023-04-04T12:01:57;102873.84;;;12.86;44.24
72921;BME280;61064;51.654;5.476;2023-04-04T12:04:24;102835.16;;;12.73;44.12
72921;BME280;61064;51.654;5.476;2023-04-04T12:06:53;102876.09;;;13.02;44.61
72921;BME280;61064;51.654;5.476;2023-04-04T12:09:19;102838.50;;;12.96;44.54
72921;BME280;61064;51.654;5.476;2023-04-04T12:11:48;102835.56;;;13.17;44.11
72921;BME280;61064;51.654;5.476;2023-04-04T12:14:17;102788.72;;;13.00;43.95
72921;BME280;61064;51.654;5.476;2023-04-04T12:16:46;102801.81;;;13.20;43.93
72921;BME280;61064;51.654;5.476;2023-04-04T12:19:11;102799.28;;;13.26;43.49
72921;BME280;61064;51.654;5.476;2023-04-04T12:21:37;102841.22;;;13.62;42.97
72921;BME280;61064;51.654;5.476;2023-04-04T12:24:02;102824.00;;;13.51;42.56
72921;BME280;61064;51.654;5.476;2023-04-04T12:26:28;102783.66;;;13.10;42.61
72921;BME280;61064;51.654;5.476;2023-04-04T12:28:55;102847.78;;;13.40;42.65
72921;BME280;61064;51.654;5.476;2023-04-04T12:31:24;102855.97;;;13.46;42.42
72921;BME280;61064;51.654;5.476;2023-04-04T12:33:49;102770.75;;;12.94;42.22
72921;BME280;61064;51.654;5.476;2023-04-04T12:36:16;102845.97;;;13.39;41.93
72921;BME280;61064;51.654;5.476;2023-04-04T12:38:58;102795.47;;;13.17;42.03
72921;BME280;61064;51.654;5.476;2023-04-04T12:41:24;102841.00;;;13.53;42.45
72921;BME280;61064;51.654;5.476;2023-04-04T12:43:50;102790.59;;;13.35;42.13
72921;BME280;61064;51.654;5.476;2023-04-04T12:46:17;102785.31;;;13.38;42.21
72921;BME280;61064;51.654;5.476;2023-04-04T12:48:42;102798.28;;;13.56;41.89
72921;BME280;61064;51.654;5.476;2023-04-04T12:51:09;102756.97;;;13.45;41.74
72921;BME280;61064;51.654;5.476;2023-04-04T12:53:49;102811.69;;;13.93;41.98
72921;BME280;61064;51.654;5.476;2023-04-04T12:56:17;102789.66;;;14.03;42.02
72921;BME280;61064;51.654;5.476;2023-04-04T12:58:46;102817.03;;;14.31;41.95
72921;BME280;61064;51.654;5.476;2023-04-04T13:01:15;102792.91;;;14.29;41.29
72921;BME280;61064;51.654;5.476;2023-04-04T13:03:43;102751.41;;;14.09;41.43
72921;BME280;61064;51.654;5.476;2023-04-04T13:06:17;102802.81;;;14.33;41.53
72921;BME280;61064;51.654;5.476;2023-04-04T13:08:52;102800.13;;;14.33;41.68
72921;BME280;61064;51.654;5.476;2023-04-04T13:11:18;102782.22;;;14.31;41.43
72921;BME280;61064;51.654;5.476;2023-04-04T13:13:44;102768.91;;;14.34;41.37
72921;BME280;61064;51.654;5.476;2023-04-04T13:16:27;102784.53;;;14.54;40.99
72921;BME280;61064;51.654;5.476;2023-04-04T13:18:54;102788.13;;;14.53;41.04
72921;BME280;61064;51.654;5.476;2023-04-04T13:21:19;102711.44;;;14.18;41.07